Terminal Aerodrome Forecast
Issued by NWS

Home | Current Version | Previous Version | Text Only | Print | Product List | Glossary On
Versions: 1 2 3 4 5 6 7 8 9 10 11 12 13
071
FTUS43 KGRB 131120
TAFMTW
TAF
KMTW 131120Z 1312/1412 30012G18KT P6SM SKC
     FM132200 28006KT P6SM SCT200
     FM140300 VRB03KT P6SM BKN200=

USA.gov is the U.S. government's official web portal to all federal, state and local government web resources and services.